• Join FlightAware (Why Join?)
  • Login
  • US Flag 
10:08AM EST


 

Airport Tracker/Info


-or-


 

Live Flight TrackerFlight Track Log ✈ UAL1038 ✈ 09-Apr-2014 ✈ KLAX - KIAD

Flight Track Log - Related Links

Times and Time Zones

All times are in EDT time to prevent confusion due to time zone crossing. See the UAL1038 flight status page for this flight to view local times or setup timezone preferences in your user account.

Time Position Orientation Groundspeed Altitude Reporting Facility
EDT Latitude Longitude Course Direction KTS MPH feet Rate Location/Type
04:17PM 33.8719 -118.5739 184° South 239 275 7,700  Level FlightAware ADS-B
04:18PM 34.1939 -117.9455 59° Northeast  Level FlightAware Approximate
04:18PM 33.8577 -118.5729 170° South 244 281 8,100  Level FlightAware ADS-B
04:18PM 33.8525 -118.5708 150° Southeast 254 292 8,600 2,520 Climbing FlightAware ADS-B
04:18PM 33.8315 -118.5442 113° Southeast 279 321 9,300 1,620 Climbing FlightAware ADS-B
04:18PM 33.8286 -118.5259 92° East 296 341 9,600 2,220 Climbing FlightAware ADS-B
04:18PM 33.8291 -118.5189 76° East 307 353 9,900 2,700 Climbing FlightAware ADS-B
04:19PM 33.8592 -118.4757 50° Northeast 249 287 11,400 1,800 Climbing FlightAware ADS-B (KSNA)
04:20PM 33.9219 -118.4363 34° Northeast 365 420 12,300 1,500 Climbing FlightAware ADS-B (OPMT / MUX)
04:20PM 33.9395 -118.4180 45° Northeast 374 430 12,800 2,400 Climbing FlightAware ADS-B (OPMT / MUX)
04:20PM 33.9701 -118.3675 55° Northeast 388 447 14,000 2,460 Climbing FlightAware ADS-B (OPMT / MUX)
04:21PM 34.0009 -118.3128 55° Northeast 394 453 15,300 2,640 Climbing FlightAware ADS-B (OPMT / MUX)
04:21PM 34.0119 -118.2932 56° Northeast 398 458 15,900 2,460 Climbing FlightAware ADS-B (KSNA)
04:21PM 34.0326 -118.2567 55° Northeast 403 464 16,600 2,340 Climbing FlightAware ADS-B (OPMT / MUX)
04:22PM 34.0574 -118.2128 56° Northeast 411 473 17,500 2,160 Climbing FlightAware ADS-B (KSNA)
04:22PM 34.0647 -118.1997 56° Northeast 411 473 17,700 2,220 Climbing FlightAware ADS-B (OPMT / MUX)
04:22PM 34.0890 -118.1567 55° Northeast 417 480 18,600 2,400 Climbing FlightAware ADS-B (OPMT / MUX)
04:22PM 34.1003 -118.1369 55° Northeast 418 481 19,000 2,460 Climbing FlightAware ADS-B (KSNA)
04:23PM 34.1283 -118.0879 55° Northeast 418 481 20,100 2,460 Climbing FlightAware ADS-B (OPMT / MUX)
04:23PM 34.1432 -118.0617 56° Northeast 422 486 20,600 2,460 Climbing FlightAware ADS-B (KSNA)
04:23PM 34.1630 -118.0266 55° Northeast 419 482 21,400 2,460 Climbing FlightAware ADS-B (OPMT / MUX)
04:24PM 34.1865 -117.9850 56° Northeast 419 482 22,300 2,160 Climbing FlightAware ADS-B (KSNA)
04:24PM 34.1855 -117.9868 55° Northeast 419 482 22,500 1,860 Climbing FlightAware ADS-B (OPMT / MUX)
04:24PM 34.2259 -117.9149 55° Northeast 422 486 23,400 1,980 Climbing FlightAware ADS-B (OPMT / MUX)
04:24PM 34.2280 -117.9112 56° Northeast 424 488 23,500 1,380 Climbing FlightAware ADS-B (KSNA)
04:25PM 34.2547 -117.8636 53° Northeast 428 493 24,100 1,380 Climbing FlightAware ADS-B (OPMT / MUX)
04:25PM 34.2772 -117.8300 50° Northeast 431 496 24,500 1,500 Climbing FlightAware ADS-B (KSNA)
04:25PM 34.3063 -117.7887 53° Northeast 428 493 25,000 2,220 Climbing FlightAware ADS-B (OPMT / MUX)
04:26PM 34.3427 -117.7369 50° Northeast 439 505 26,500 1,260 Climbing FlightAware ADS-B (KBNG)
04:27PM 34.4046 -117.6482 50° Northeast 445 512 26,700 660 Climbing FlightAware ADS-B (KBNG)
04:27PM 34.4508 -117.5824 50° Northeast 453 521 27,400 900 Climbing FlightAware ADS-B (KBNG)
04:28PM 34.4836 -117.5350 50° Northeast 446 513 27,800 900 Climbing Los Angeles Center
04:29PM 34.5822 -117.3903 50° Northeast 463 533 28,900 960 Climbing Los Angeles Center
04:31PM 34.7489 -117.1475 50° Northeast 470 541 30,800 720 Climbing Los Angeles Center
04:33PM 34.9239 -116.8936 49° Northeast 494 568 32,000 720 Climbing Los Angeles Center
04:34PM 35.0303 -116.7369 50° Northeast 498 573 33,200 1,080 Climbing Los Angeles Center
04:35PM 35.1164 -116.6089 51° Northeast 499 574 34,300 720 Climbing Los Angeles Center
04:36PM 35.2019 -116.4814 51° Northeast 490 564 34,800 300 Climbing Los Angeles Center
04:37PM 35.2897 -116.3528 50° Northeast 493 567 35,000 60 Climbing Los Angeles Center
04:39PM 35.4800 -116.0678 51° Northeast 493 567 35,000  Level Los Angeles Center
04:40PM 35.5678 -115.9403 50° Northeast 492 566 35,000  Level Los Angeles Center
04:44PM 35.9222 -115.4014 70° East 484 557 35,000  Level Los Angeles Center
04:46PM 36.0385 -115.2238 51° Northeast 490 564 35,000  Level FlightAware ADS-B
04:46PM 36.0679 -115.1740 58° Northeast 489 563 35,000  Level FlightAware ADS-B
04:50PM 36.2425 -114.6353 69° East 492 566 35,000  Level Los Angeles Center
04:51PM 36.3382 -114.3294 69° East 497 572 35,000  Level FlightAware ADS-B
04:55PM 36.4691 -113.8697 69° East  Level FlightAware Approximate
04:55PM 36.5219 -113.7251 69° East 502 578 35,000  Level FlightAware ADS-B (ZWAK / AKU)
04:56PM 36.5767 -113.5483 69° East 504 580 35,000  Level FlightAware ADS-B (ZWAK / AKU)
04:57PM 36.6113 -113.4346 69° East 504 580 35,000  Level FlightAware ADS-B
04:58PM 36.6673 -113.2490 70° East 502 578 35,000  Level FlightAware ADS-B
04:59PM 36.7108 -113.1032 70° East 501 577 35,000  Level FlightAware ADS-B
05:00PM 36.7478 -112.9790 70° East 498 573 35,000  Level FlightAware ADS-B
05:00PM 36.7717 -112.8988 70° East 497 572 35,000  Level FlightAware ADS-B (ZWAK / AKU)
05:01PM 36.8260 -112.7143 70° East 495 570 35,000  Level FlightAware ADS-B (ZWAK / AKU)
05:02PM 36.8716 -112.5593 70° East 496 571 35,000  Level FlightAware ADS-B (ZWAK / AKU)
05:04PM 36.9252 -112.3762 70° East 495 570 35,000  Level FlightAware ADS-B (ZWAK / AKU)
05:05PM 36.9747 -112.2051 70° East 494 568 35,000  Level FlightAware ADS-B (ZWAK / AKU)
05:08PM 37.1161 -111.7122 71° East 495 570 35,000  Level FlightAware ADS-B (ZWAK / AKU)
05:09PM 37.1673 -111.5317 71° East 494 568 35,000  Level FlightAware ADS-B (ZWAK / AKU)
05:10PM 37.2152 -111.3613 71° East 495 570 35,000  Level FlightAware ADS-B (ZWAK / AKU)
05:11PM 37.2603 -111.2001 71° East 493 567 35,000  Level FlightAware ADS-B (ZWAK / AKU)
05:12PM 37.3063 -111.0342 71° East 494 568 35,000  Level FlightAware ADS-B (ZWAK / AKU)
05:13PM 37.3518 -110.8694 71° East 493 567 35,000  Level FlightAware ADS-B (ZWAK / AKU)
05:14PM 37.4012 -110.6897 71° East 495 570 35,000 -420 Level FlightAware ADS-B (ZWAK / AKU)
05:16PM 37.4934 -110.3509 71° East 491 565 33,800 -660 Descending FlightAware ADS-B (ZWAK / AKU)
05:17PM 37.5406 -110.1755 72° East 491 565 33,000 -420 Descending FlightAware ADS-B (ZWAK / AKU)
05:18PM 37.5861 -110.0049 72° East 491 565 33,000  Level FlightAware ADS-B (ZWAK / AKU)
05:19PM 37.6130 -109.9035 72° East 490 564 33,000  Level FlightAware ADS-B
05:19PM 37.6382 -109.8086 72° East 490 564 33,000  Level FlightAware ADS-B
05:20PM 37.6656 -109.7044 72° East 492 566 33,000  Level FlightAware ADS-B
05:21PM 37.6952 -109.5919 72° East 492 566 33,000  Level FlightAware ADS-B
05:21PM 37.7189 -109.5015 72° East 490 564 33,000  Level FlightAware ADS-B
05:22PM 37.7453 -109.3999 72° East 489 563 33,000  Level FlightAware ADS-B
05:22PM 37.7666 -109.3182 72° East 489 563 33,000  Level FlightAware ADS-B (ZWAK / AKU)
05:23PM 37.7859 -109.2442 72° East 490 564 33,000  Level FlightAware ADS-B
05:24PM 37.8159 -109.1277 72° East 491 565 33,000  Level FlightAware ADS-B
05:25PM 37.8694 -108.9183 72° East 485 558 33,000  Level FlightAware ADS-B
05:26PM 37.9005 -108.7959 72° East 484 557 33,000  Level FlightAware ADS-B (ZWAK / AKU)
05:26PM 37.9196 -108.7209 72° East 482 555 33,000  Level FlightAware ADS-B
05:27PM 37.9458 -108.6175 72° East 481 554 33,000  Level FlightAware ADS-B
05:27PM 37.9709 -108.5176 72° East 481 554 33,000  Level FlightAware ADS-B
05:28PM 38.0012 -108.3971 73° East 480 552 33,000  Level FlightAware ADS-B
05:29PM 38.0214 -108.3156 73° East 480 552 33,000  Level FlightAware ADS-B
05:29PM 38.0425 -108.2306 73° East 481 554 33,000  Level FlightAware ADS-B
05:30PM 38.0683 -108.1268 73° East 486 559 33,000  Level FlightAware ADS-B (ZWAK / AKU)
05:30PM 38.0922 -108.0303 73° East 487 560 33,000  Level FlightAware ADS-B
05:31PM 38.1145 -107.9398 73° East 485 558 33,000  Level FlightAware ADS-B
05:31PM 38.1355 -107.8542 73° East 485 558 33,000  Level FlightAware ADS-B
05:32PM 38.1610 -107.7500 73° East 491 565 33,000  Level FlightAware ADS-B
05:33PM 38.1806 -107.6691 73° East 491 565 33,000  Level FlightAware ADS-B
05:33PM 38.2019 -107.5803 73° East 491 565 33,000  Level FlightAware ADS-B
05:34PM 38.2285 -107.4703 73° East 493 567 33,000  Level FlightAware ADS-B
05:34PM 38.2503 -107.3804 73° East 494 568 33,000  Level FlightAware ADS-B
05:35PM 38.2702 -107.2972 73° East 495 570 33,000  Level FlightAware ADS-B
05:35PM 38.2915 -107.2077 73° East 497 572 33,000  Level FlightAware ADS-B
05:36PM 38.3112 -107.1248 73° East 496 571 33,000  Level FlightAware ADS-B
05:36PM 38.3325 -107.0345 73° East 494 568 33,000  Level FlightAware ADS-B
05:37PM 38.3584 -106.9245 73° East 493 567 33,000  Level FlightAware ADS-B
05:38PM 38.3796 -106.8339 73° East 491 565 33,000  Level FlightAware ADS-B
05:38PM 38.3994 -106.7494 73° East 493 567 33,000  Level FlightAware ADS-B
05:39PM 38.4196 -106.6628 74° East 492 566 33,000  Level FlightAware ADS-B
05:39PM 38.4382 -106.5827 74° East 491 565 33,000  Level FlightAware ADS-B
05:40PM 38.4591 -106.4923 74° East 491 565 33,000  Level FlightAware ADS-B
05:40PM 38.4784 -106.4086 74° East 491 565 33,000  Level FlightAware ADS-B
05:41PM 38.4987 -106.3201 74° East 484 557 33,000  Level FlightAware ADS-B
05:41PM 38.5171 -106.2392 74° East 482 555 33,000  Level FlightAware ADS-B
05:42PM 38.5371 -106.1514 74° East 485 558 33,000  Level FlightAware ADS-B
05:42PM 38.5557 -106.0694 74° East 488 562 33,000  Level FlightAware ADS-B (KEIK)
05:43PM 38.5731 -105.9925 74° East 486 559 33,000  Level FlightAware ADS-B (KEIK)
05:43PM 38.5955 -105.8931 74° East 487 560 33,000  Level FlightAware ADS-B (KEIK)
05:44PM 38.6144 -105.8089 74° East 483 556 33,000  Level FlightAware ADS-B (KEIK)
05:44PM 38.6362 -105.7116 74° East 479 551 33,000  Level FlightAware ADS-B (KEIK)
05:45PM 38.6622 -105.5943 74° East 479 551 33,000  Level FlightAware ADS-B (KEIK)
05:46PM 38.6872 -105.4816 74° East 477 549 33,000  Level FlightAware ADS-B (KEIK)
05:47PM 38.6932 -105.4548 74° East 475 547 33,000  Level FlightAware ADS-B (ZWAK / AKU)
05:47PM 38.7447 -105.2195 75° East 478 550 33,000  Level FlightAware ADS-B
05:48PM 38.7616 -105.1429 74° East 476 548 33,000  Level FlightAware ADS-B
05:49PM 38.7865 -105.0276 75° East 476 548 33,000  Level FlightAware ADS-B (KEIK)
05:49PM 38.8128 -104.9045 77° East 478 550 33,000  Level FlightAware ADS-B (KEIK)
05:50PM 38.8296 -104.7872 80° East 482 555 33,000  Level FlightAware ADS-B (KEIK)
05:51PM 38.8450 -104.6738 80° East 485 558 33,000  Level FlightAware ADS-B (KEIK)
05:51PM 38.8616 -104.5520 80° East 489 563 33,000  Level FlightAware ADS-B
05:52PM 38.8755 -104.4488 80° East 487 560 33,000  Level FlightAware ADS-B (KEIK)
05:53PM 38.8842 -104.3846 80° East 488 562 33,000  Level FlightAware ADS-B (KEIK)
05:53PM 38.8994 -104.2730 80° East 489 563 33,000  Level FlightAware ADS-B (KEIK)
05:54PM 38.9121 -104.1767 80° East 491 565 33,000  Level FlightAware ADS-B (KEIK)
05:54PM 38.9288 -104.0505 80° East 494 568 33,000  Level FlightAware ADS-B (KEIK)
05:55PM 38.9382 -103.9783 80° East 494 568 33,000  Level FlightAware ADS-B
05:55PM 38.9522 -103.8722 81° East 495 570 33,000  Level FlightAware ADS-B
05:56PM 38.9645 -103.7776 81° East 495 570 33,000  Level FlightAware ADS-B (KEIK)
05:57PM 38.9909 -103.5716 81° East 494 568 33,000  Level FlightAware ADS-B (KEIK)
05:58PM 39.0029 -103.4771 81° East 493 567 33,000  Level FlightAware ADS-B
05:58PM 39.0129 -103.3973 81° East 493 567 33,000  Level FlightAware ADS-B (KEIK)
05:59PM 39.0233 -103.3140 81° East 491 565 33,000  Level FlightAware ADS-B
05:59PM 39.0385 -103.1926 81° East 490 564 33,000  Level FlightAware ADS-B (KEIK)
06:00PM 39.0478 -103.1173 81° East 492 566 33,000  Level FlightAware ADS-B (KEIK)
06:00PM 39.0602 -103.0172 81° East 491 565 33,000  Level FlightAware ADS-B (KEIK)
06:01PM 39.0769 -102.8798 81° East 490 564 33,000  Level FlightAware ADS-B (KEIK)
06:02PM 39.0852 -102.8105 81° East 488 562 33,000  Level FlightAware ADS-B (KEIK)
06:02PM 39.1041 -102.6534 81° East 487 560 33,000  Level FlightAware ADS-B
06:03PM 39.1190 -102.5282 81° East 485 558 33,000 -120 Level FlightAware ADS-B (KEIK)
06:04PM 39.1290 -102.4437 81° East 481 554 32,900 -600 Descending FlightAware ADS-B
06:04PM 39.1389 -102.3580 82° East 486 559 32,400 -960 Descending FlightAware ADS-B
06:05PM 39.1534 -102.2337 82° East 499 574 31,700 -1,020 Descending FlightAware ADS-B
06:05PM 39.1649 -102.1337 82° East 499 574 31,100 -600 Descending FlightAware ADS-B (KEIK)
06:06PM 39.1763 -102.0333 82° East 496 571 31,000 -120 Descending FlightAware ADS-B
06:07PM 39.1891 -101.9191 82° East 496 571 31,000  Level FlightAware ADS-B
06:07PM 39.2007 -101.8164 82° East 493 567 31,000  Level FlightAware ADS-B
06:08PM 39.2167 -101.6721 82° East 493 567 31,000  Level FlightAware ADS-B
06:09PM 39.2368 -101.4885 82° East 489 563 31,000  Level FlightAware ADS-B
06:10PM 39.2608 -101.2650 82° East 490 564 31,000  Level FlightAware ADS-B
06:14PM 39.3223 -100.6769 83° East 493 567 31,000  Level FlightAware ADS-B
06:15PM 39.3462 -100.4392 83° East 489 563 31,000  Level FlightAware ADS-B
06:16PM 39.3608 -100.2917 83° East 489 563 31,000  Level Denver Center
06:17PM 39.3764 -100.1236 83° East 489 563 31,100 480 Climbing Denver Center
06:24PM 39.4851 -98.9436 84° East 500 575 35,000 540 Climbing FlightAware ADS-B
06:24PM 39.4937 -98.8434 84° East 501 577 35,000  Level FlightAware ADS-B
06:25PM 39.5042 -98.7200 84° East 501 577 35,000  Level FlightAware ADS-B
06:25PM 39.5116 -98.6309 84° East 498 573 35,000  Level FlightAware ADS-B
06:26PM 39.5192 -98.5400 84° East 497 572 35,000  Level FlightAware ADS-B
06:26PM 39.5269 -98.4472 84° East 497 572 35,000  Level FlightAware ADS-B
06:27PM 39.5345 -98.3541 84° East 496 571 35,000  Level FlightAware ADS-B
06:27PM 39.5417 -98.2652 84° East 496 571 35,000  Level FlightAware ADS-B
06:28PM 39.5488 -98.1759 84° East 496 571 35,000  Level FlightAware ADS-B
06:28PM 39.5558 -98.0868 84° East 495 570 35,000  Level FlightAware ADS-B
06:29PM 39.5627 -97.9980 84° East 494 568 35,000  Level FlightAware ADS-B
06:29PM 39.5696 -97.9089 84° East 494 568 35,000  Level FlightAware ADS-B
06:30PM 39.5768 -97.8156 84° East 495 570 35,000  Level FlightAware ADS-B
06:30PM 39.5836 -97.7266 84° East 496 571 35,000  Level FlightAware ADS-B
06:31PM 39.5931 -97.6011 84° East 496 571 35,000  Level FlightAware ADS-B
06:32PM 39.5998 -97.5111 84° East 497 572 35,000  Level FlightAware ADS-B
06:32PM 39.6064 -97.4216 85° East 498 573 35,000  Level FlightAware ADS-B
06:33PM 39.6130 -97.3309 85° East 498 573 35,000  Level FlightAware ADS-B
06:33PM 39.6195 -97.2396 85° East 497 572 35,000  Level FlightAware ADS-B
06:34PM 39.6261 -97.1467 85° East 495 570 35,000  Level FlightAware ADS-B
06:34PM 39.6324 -97.0576 85° East 495 570 35,000  Level FlightAware ADS-B
06:35PM 39.6386 -96.9657 85° East 497 572 35,000  Level FlightAware ADS-B
06:35PM 39.6449 -96.8736 85° East 497 572 35,000  Level FlightAware ADS-B
06:36PM 39.6513 -96.7793 85° East 496 571 35,000  Level FlightAware ADS-B
06:36PM 39.6575 -96.6888 85° East 497 572 35,000  Level FlightAware ADS-B
06:37PM 39.6634 -96.5991 85° East 496 571 35,000  Level FlightAware ADS-B
06:37PM 39.6694 -96.5070 85° East 495 570 35,000  Level FlightAware ADS-B
06:38PM 39.6752 -96.4177 85° East 496 571 35,000  Level FlightAware ADS-B
06:38PM 39.6808 -96.3289 85° East 495 570 35,000  Level FlightAware ADS-B
06:39PM 39.6865 -96.2395 85° East 494 568 35,000  Level FlightAware ADS-B
06:39PM 39.6921 -96.1483 85° East 493 567 35,000  Level FlightAware ADS-B
06:40PM 39.6975 -96.0591 86° East 491 565 35,000  Level FlightAware ADS-B
06:40PM 39.7037 -95.9578 85° East 491 565 35,000  Level FlightAware ADS-B
06:41PM 39.7091 -95.8691 86° East 488 562 35,000  Level FlightAware ADS-B
06:41PM 39.7144 -95.7816 86° East 486 559 35,000  Level FlightAware ADS-B
06:42PM 39.7194 -95.6943 86° East 487 560 35,000  Level FlightAware ADS-B
06:42PM 39.7244 -95.6069 86° East 487 560 35,000  Level FlightAware ADS-B
06:43PM 39.7294 -95.5190 86° East 488 562 35,000  Level FlightAware ADS-B
06:43PM 39.7342 -95.4315 86° East 488 562 35,000  Level FlightAware ADS-B
06:44PM 39.7391 -95.3420 86° East 489 563 35,000  Level FlightAware ADS-B
06:44PM 39.7441 -95.2514 86° East 492 566 35,000  Level FlightAware ADS-B
06:45PM 39.7489 -95.1616 86° East 495 570 35,000  Level FlightAware ADS-B
06:45PM 39.7537 -95.0718 86° East 495 570 35,000  Level FlightAware ADS-B
06:46PM 39.7593 -94.9680 86° East 494 568 35,000  Level FlightAware ADS-B
06:47PM 39.7639 -94.8783 86° East 491 565 35,000  Level FlightAware ADS-B
06:47PM 39.7684 -94.7899 86° East 489 563 35,000  Level FlightAware ADS-B
06:48PM 39.7727 -94.7014 86° East 489 563 35,000  Level FlightAware ADS-B
06:48PM 39.7772 -94.6091 86° East 490 564 35,000  Level FlightAware ADS-B
06:49PM 39.7815 -94.5200 86° East 490 564 35,000  Level FlightAware ADS-B
06:49PM 39.7858 -94.4296 86° East 491 565 35,000  Level FlightAware ADS-B
06:50PM 39.7900 -94.3385 87° East 491 565 35,000  Level FlightAware ADS-B
06:50PM 39.7941 -94.2492 87° East 491 565 35,000  Level FlightAware ADS-B
06:51PM 39.7981 -94.1600 87° East 490 564 35,000  Level FlightAware ADS-B
06:51PM 39.8020 -94.0709 87° East 490 564 35,000  Level FlightAware ADS-B
06:52PM 39.8059 -93.9826 87° East 490 564 35,000  Level FlightAware ADS-B
06:52PM 39.8098 -93.8940 87° East 491 565 35,000  Level FlightAware ADS-B
06:53PM 39.8135 -93.8044 87° East 490 564 35,000  Level FlightAware ADS-B
06:53PM 39.8172 -93.7150 87° East 490 564 35,000  Level FlightAware ADS-B
06:54PM 39.8209 -93.6247 87° East 490 564 35,000  Level FlightAware ADS-B
06:54PM 39.8244 -93.5363 87° East 489 563 35,000  Level FlightAware ADS-B
06:55PM 39.8281 -93.4422 87° East 491 565 35,000 420 Level FlightAware ADS-B
06:55PM 39.8315 -93.3509 87° East 491 565 35,500 720 Climbing FlightAware ADS-B
06:56PM 39.8350 -93.2567 87° East 489 563 35,900 360 Climbing Kansas City Center
06:59PM 39.8542 -92.6950 88° East 491 565 37,000 180 Climbing Kansas City Center
07:01PM 39.8647 -92.3458 89° East 492 566 37,000  Level Kansas City Center
07:03PM 39.8747 -91.9642 90° East 491 565 37,000  Level Kansas City Center
07:04PM 39.8792 -91.7917 88° East 487 560 37,000  Level Kansas City Center
07:05PM 39.8844 -91.6172 88° East 487 560 37,000  Level Kansas City Center
07:06PM 39.8897 -91.4111 88° East 485 558 37,000  Level Kansas City Center
07:08PM 39.8950 -91.0658 89° East 482 555 37,000  Level Kansas City Center
07:15PM 39.9098 -89.9624 89° East 491 565 37,000  Level FlightAware ADS-B (KPWK)
07:15PM 39.9110 -89.8260 89° East 493 567 37,000  Level FlightAware ADS-B
07:16PM 39.9119 -89.6920 90° East 493 567 37,000  Level FlightAware ADS-B
07:17PM 39.9124 -89.5684 90° East 492 566 37,000  Level FlightAware ADS-B
07:17PM 39.9129 -89.4581 90° East 488 562 37,000  Level FlightAware ADS-B
07:18PM 39.9134 -89.3384 90° East 485 558 37,000  Level FlightAware ADS-B
07:19PM 39.9137 -89.2244 90° East 485 558 37,000  Level FlightAware ADS-B
07:19PM 39.9140 -89.1218 90° East 484 557 37,000  Level FlightAware ADS-B
07:20PM 39.9140 -89.0350 90° East 483 556 37,000  Level FlightAware ADS-B
07:20PM 39.9140 -88.9353 90° East 482 555 37,000  Level FlightAware ADS-B
07:21PM 39.9139 -88.8370 90° East 481 554 37,000  Level FlightAware ADS-B (KMDW)
07:21PM 39.9137 -88.7459 90° East 482 555 37,000  Level FlightAware ADS-B
07:22PM 39.9135 -88.6287 90° East 483 556 37,000  Level FlightAware ADS-B
07:23PM 39.9131 -88.5297 90° East 484 557 37,000  Level FlightAware ADS-B
07:23PM 39.9128 -88.4321 90° East 484 557 37,000  Level FlightAware ADS-B
07:24PM 39.9125 -88.3606 91° East 484 557 37,000  Level FlightAware ADS-B
07:24PM 39.9119 -88.2541 91° East 485 558 37,000  Level FlightAware ADS-B
07:25PM 39.9112 -88.1462 91° East 486 559 37,000  Level FlightAware ADS-B
07:25PM 39.9106 -88.0610 91° East 486 559 37,000  Level FlightAware ADS-B
07:27PM 39.9093 -87.8998 91° East 487 560 37,000  Level FlightAware ADS-B (KMDW)
07:28PM 39.9052 -87.5531 91° East 484 557 37,000  Level FlightAware ADS-B
07:29PM 39.9047 -87.5072 91° East 484 557 37,000  Level FlightAware ADS-B
07:30PM 39.9014 -87.2457 91° East 485 558 37,000  Level FlightAware ADS-B
07:31PM 39.8998 -87.1435 91° East 485 558 37,000  Level FlightAware ADS-B
07:31PM 39.8982 -87.0504 91° East 487 560 37,000  Level FlightAware ADS-B (KMDW)
07:32PM 39.8977 -87.0185 91° East 487 560 37,000  Level FlightAware ADS-B
07:35PM 39.8895 -86.5847 92° East 486 559 37,000  Level FlightAware ADS-B
07:36PM 39.8815 -86.2236 92° East 483 556 37,000  Level FlightAware ADS-B
07:37PM 39.8784 -86.0949 92° East 482 555 37,000  Level FlightAware ADS-B
07:37PM 39.8763 -86.0080 92° East 481 554 37,000  Level FlightAware ADS-B
07:38PM 39.8742 -85.9245 92° East 480 552 37,000  Level FlightAware ADS-B
07:38PM 39.8717 -85.8307 92° East 479 551 37,000  Level FlightAware ADS-B
07:39PM 39.8688 -85.7222 92° East 482 555 37,000  Level FlightAware ADS-B
07:40PM 39.8647 -85.5792 92° East 485 558 37,000  Level FlightAware ADS-B
07:42PM 39.8526 -85.1761 92° East 493 567 37,000  Level FlightAware ADS-B
07:48PM 39.8095 -84.0393 93° East 490 564 37,000  Level FlightAware ADS-B
07:49PM 39.8041 -83.9135 93° East 490 564 37,000  Level FlightAware ADS-B
07:49PM 39.8002 -83.8250 93° East 489 563 37,000  Level FlightAware ADS-B
07:50PM 39.7952 -83.7113 93° East 490 564 37,000  Level FlightAware ADS-B
07:51PM 39.7906 -83.6114 93° East 490 564 37,000  Level FlightAware ADS-B
07:51PM 39.7853 -83.4984 94° East 491 565 37,000  Level FlightAware ADS-B
07:52PM 39.7798 -83.3809 94° East 494 568 37,000  Level FlightAware ADS-B
07:55PM 39.7560 -82.9041 94° East 492 566 37,000  Level FlightAware ADS-B
07:55PM 39.7501 -82.7952 94° East 491 565 37,000  Level FlightAware ADS-B
07:56PM 39.7445 -82.6910 94° East 490 564 37,000  Level FlightAware ADS-B
07:56PM 39.7396 -82.5992 94° East 490 564 37,000  Level FlightAware ADS-B
07:57PM 39.7312 -82.4482 94° East 490 564 37,000  Level FlightAware ADS-B
07:58PM 39.7246 -82.3338 94° East 491 565 37,000  Level FlightAware ADS-B
07:59PM 39.7183 -82.2238 94° East 493 567 37,000  Level FlightAware ADS-B
07:59PM 39.7131 -82.1325 94° East 493 567 37,000  Level FlightAware ADS-B
08:00PM 39.7062 -82.0154 95° East 495 570 37,000  Level FlightAware ADS-B
08:00PM 39.6994 -81.9050 95° East 496 571 37,000  Level FlightAware ADS-B
08:01PM 39.6933 -81.8061 95° East 496 571 37,000  Level FlightAware ADS-B
08:02PM 39.6870 -81.7047 95° East 496 571 37,000  Level FlightAware ADS-B
08:02PM 39.6807 -81.6044 95° East 496 571 37,000  Level FlightAware ADS-B
08:03PM 39.6746 -81.5073 95° East 496 571 37,000  Level FlightAware ADS-B
08:03PM 39.6675 -81.3989 95° East 494 568 37,000  Level Cleveland Center
08:04PM 39.6528 -81.1861 95° East 495 570 37,000  Level Cleveland Center
08:06PM 39.6403 -81.0103 95° East 495 570 37,000  Level Cleveland Center
08:07PM 39.6289 -80.8353 95° East 494 568 37,000  Level Cleveland Center
08:08PM 39.6164 -80.6619 95° East 491 565 37,000  Level Cleveland Center
08:09PM 39.6044 -80.4883 95° East 489 563 37,000  Level Cleveland Center
08:10PM 39.5883 -80.2769 96° East 489 563 37,000 -240 Level Cleveland Center
08:11PM 39.5756 -80.1031 95° East 490 564 36,500 -1,740 Descending Cleveland Center
08:12PM 39.5611 -79.9292 96° East 491 565 33,400 -3,120 Descending Cleveland Center
08:13PM 39.5350 -79.7544 101° East 503 579 30,100 -2,820 Descending Cleveland Center
08:14PM 39.5053 -79.5858 103° East 493 567 27,600 -1,920 Descending Cleveland Center
08:15PM 39.4708 -79.3908 103° East 471 542 26,200 -1,800 Descending Cleveland Center
08:16PM 39.4414 -79.2322 103° East 460 529 23,900 -1,920 Descending Cleveland Center
08:17PM 39.4161 -79.0828 102° East 436 502 22,300 -1,740 Descending Cleveland Center
08:18PM 39.3886 -78.9325 103° East 412 474 20,400 -1,920 Descending Cleveland Center
08:19PM 39.3628 -78.7886 103° East 402 463 18,300 -1,920 Descending Washington Center
08:20PM 39.3392 -78.6589 103° East 390 449 16,400 -1,800 Descending Washington Center
08:22PM 39.2933 -78.4039 103° East 367 422 12,900 -1,800 Descending Cleveland Center
08:23PM 39.2458 -78.2931 119° Southeast 358 412 11,200 -1,080 Descending Washington Center
08:24PM 39.1958 -78.1947 123° Southeast 343 395 10,800 -780 Descending Washington Center
08:30PM 38.9515 -77.6401 109° East 281 323 6,000 -780 Descending FlightAware ADS-B (KDAA)
08:30PM 38.9449 -77.6265 126° Southeast 277 319 6,000  Level FlightAware ADS-B (KDAA)
08:30PM 38.9352 -77.6160 145° Southeast 265 305 6,000  Level FlightAware ADS-B (KDAA)
08:30PM 38.9300 -77.6127 153° Southeast 259 298 6,000 -600 Level FlightAware ADS-B (KDAA)
08:31PM 38.9161 -77.6050 157° South 250 288 5,800 -1,020 Descending FlightAware ADS-B (KDAA)
08:31PM 38.8974 -77.5953 157° South 248 285 5,500 -1,080 Descending FlightAware ADS-B (KDAA)
08:31PM 38.8819 -77.5874 158° South 245 282 5,300 -1,080 Descending FlightAware ADS-B (KDAA)
08:31PM 38.8675 -77.5803 159° South 244 281 5,000 -1,200 Descending FlightAware ADS-B (KDAA)
08:32PM 38.8550 -77.5755 166° South 242 278 4,800 -1,440 Descending FlightAware ADS-B (KDAA)
08:32PM 38.8422 -77.5738 177° South 238 274 4,400 -1,620 Descending FlightAware ADS-B (KDAA)
08:32PM 38.8332 -77.5742 183° South 236 272 4,300 -1,320 Descending FlightAware ADS-B (KDAA)
08:32PM 38.8237 -77.5736 172° South 237 273 4,100 -1,620 Descending FlightAware ADS-B (KDAA)
08:32PM 38.8032 -77.5585 146° Southeast 238 274 3,500 -1,860 Descending FlightAware ADS-B (KDAA)
08:33PM 38.7970 -77.5447 111° Southeast 234 269 3,100 -1,680 Descending FlightAware ADS-B (KDAA)
08:33PM 38.7999 -77.5104 62° Northeast 219 252 2,400 -1,500 Descending FlightAware ADS-B (KDAA)
08:33PM 38.8043 -77.5032 54° Northeast 218 251 2,300 -600 Descending FlightAware ADS-B (KDAA)
08:33PM 38.8073 -77.4994 46° Northeast 213 245 2,300  Level FlightAware ADS-B (KDAA)
08:34PM 38.8168 -77.4885 38° Northeast 194 223 2,300  Level FlightAware ADS-B (KDAA)
08:34PM 38.8257 -77.4801 36° Northeast 184 212 2,300  Level FlightAware ADS-B (KDAA)
08:34PM 38.8423 -77.4648 35° Northeast 180 207 2,300 -420 Level FlightAware ADS-B (KDAA)
08:34PM 38.8483 -77.4610 20° North 178 205 2,100 -1,140 Descending FlightAware ADS-B (KDAA)
08:34PM 38.8534 -77.4604 North 166 191 2,000 -1,140 Descending FlightAware ADS-B (KDAA)
08:34PM 38.8563 -77.4605 358° North 162 186 1,900 -1,320 Descending FlightAware ADS-B (KDAA)
08:35PM 38.8643 -77.4608 North 153 176 1,700 -780 Descending FlightAware ADS-B (KDAA)
08:35PM 38.8840 -77.4605 North 134 154 1,400 -720 Descending FlightAware ADS-B (KDAA)
08:36PM 38.9072 -77.4603 North 141 162 900 -840 Descending FlightAware ADS-B (KDAA)